Time;durP1;ratioP1;P1;durP2;ratioP2;P2;SDS_P1;SDS_P2;PMS_P1;PMS_P2;Temp;Humidity;BMP_temperature;BMP_pressure;BME280_temperature;BME280_humidity;BME280_pressure;Samples;Min_cycle;Max_cycle;Signal;HPM_P1;HPM_P2
2021/05/04 00:00:41;;;;;;;1.70;1.10;;;14.20;44.90;;;;;;4944681;28;20209;-80
2021/05/04 00:03:07;;;;;;;2.23;1.60;;;14.30;45.00;;;;;;4960546;28;20178;-80
2021/05/04 00:05:33;;;;;;;2.60;1.30;;;14.30;45.10;;;;;;4993969;28;20518;-80
2021/05/04 00:07:58;;;;;;;2.00;1.27;;;14.30;44.90;;;;;;4960664;28;20179;-81
2021/05/04 00:10:24;;;;;;;3.03;1.37;;;14.40;45.10;;;;;;4959830;28;20233;-80
2021/05/04 00:12:50;;;;;;;1.80;1.30;;;14.40;45.00;;;;;;4976825;28;20179;-81
2021/05/04 00:15:15;;;;;;;2.30;1.20;;;14.40;44.90;;;;;;4976628;28;20589;-81
2021/05/04 00:17:41;;;;;;;2.08;0.95;;;14.50;44.80;;;;;;4976088;28;20221;-80
2021/05/04 00:20:10;;;;;;;3.10;1.20;;;14.50;44.80;;;;;;4994450;28;20163;-81
2021/05/04 00:22:36;;;;;;;2.35;2.15;;;14.60;44.90;;;;;;4994162;28;20163;-81
2021/05/04 00:25:02;;;;;;;1.50;0.97;;;14.60;44.70;;;;;;4976746;28;20178;-81
2021/05/04 00:27:28;;;;;;;1.88;1.20;;;14.70;44.70;;;;;;4975933;28;20277;-81
2021/05/04 00:29:54;;;;;;;3.20;1.00;;;14.70;44.70;;;;;;4994058;28;20202;-81
2021/05/04 00:32:20;;;;;;;1.67;1.10;;;14.80;44.80;;;;;;4993919;28;20752;-80
2021/05/04 00:34:45;;;;;;;2.50;1.20;;;14.80;44.70;;;;;;4975694;28;20172;-81
2021/05/04 00:37:11;;;;;;;2.23;0.90;;;14.80;44.60;;;;;;4993090;28;20253;-80
2021/05/04 00:39:38;;;;;;;3.50;1.60;;;14.90;44.60;;;;;;4993673;28;20270;-80
2021/05/04 00:42:04;;;;;;;2.35;1.00;;;14.90;44.60;;;;;;4993577;28;20575;-80
2021/05/04 00:44:30;;;;;;;2.10;1.25;;;14.90;44.50;;;;;;4976428;28;20179;-80
2021/05/04 00:46:56;;;;;;;3.65;1.00;;;15.00;44.60;;;;;;4976315;28;20797;-80
2021/05/04 00:49:22;;;;;;;2.50;1.00;;;15.00;44.50;;;;;;4976375;28;20582;-80
2021/05/04 00:51:50;;;;;;;1.87;0.90;;;15.10;44.50;;;;;;4977073;28;20620;-81
2021/05/04 00:54:17;;;;;;;2.63;0.90;;;15.10;44.50;;;;;;4976755;28;20534;-80
2021/05/04 00:56:43;;;;;;;3.33;1.50;;;15.10;44.40;;;;;;4978493;28;20206;-80
2021/05/04 00:59:11;;;;;;;1.98;1.30;;;15.10;44.40;;;;;;4996320;28;20171;-81
2021/05/04 01:01:37;;;;;;;1.92;1.23;;;15.20;44.80;;;;;;4961861;28;20183;-81
2021/05/04 01:04:06;;;;;;;1.60;1.10;;;15.20;44.40;;;;;;4995475;28;20167;-80
2021/05/04 01:06:32;;;;;;;2.10;1.02;;;15.20;44.40;;;;;;4995472;28;20583;-80
2021/05/04 01:08:58;;;;;;;1.73;1.00;;;15.20;44.50;;;;;;4988140;28;20167;-80
2021/05/04 01:11:24;;;;;;;2.35;1.30;;;15.20;44.40;;;;;;4993972;28;20174;-80
2021/05/04 01:13:56;;;;;;;2.85;0.90;;;15.20;44.40;;;;;;5011152;28;20187;-81
2021/05/04 01:16:21;;;;;;;2.15;1.00;;;15.20;44.40;;;;;;5012130;28;20217;-81
2021/05/04 01:18:47;;;;;;;1.90;0.97;;;15.20;44.40;;;;;;5012787;28;20546;-80
2021/05/04 01:21:13;;;;;;;2.20;0.80;;;15.20;44.40;;;;;;4995704;28;20162;-81
2021/05/04 01:23:39;;;;;;;1.50;0.97;;;15.20;44.40;;;;;;5011792;28;20583;-81
2021/05/04 01:26:05;;;;;;;3.93;1.40;;;15.20;44.40;;;;;;4989927;28;20202;-82
2021/05/04 01:28:31;;;;;;;2.95;1.55;;;15.20;44.40;;;;;;4989431;28;20166;-82
2021/05/04 01:30:57;;;;;;;2.08;1.00;;;15.20;44.40;;;;;;5009468;28;20171;-82
2021/05/04 01:33:23;;;;;;;3.53;1.30;;;15.20;44.50;;;;;;4996165;28;20207;-81
2021/05/04 01:35:48;;;;;;;3.20;1.10;;;15.20;44.50;;;;;;5002857;28;20221;-81
2021/05/04 01:38:15;;;;;;;1.50;0.93;;;15.20;44.50;;;;;;4975323;28;20178;-81
2021/05/04 01:40:42;;;;;;;2.08;0.80;;;15.20;44.50;;;;;;4992859;28;20167;-81
2021/05/04 01:43:08;;;;;;;1.35;0.70;;;15.20;44.40;;;;;;4992492;28;20167;-81
2021/05/04 01:45:34;;;;;;;1.80;0.87;;;15.20;44.40;;;;;;4992423;28;20170;-81
2021/05/04 01:48:00;;;;;;;1.10;0.70;;;15.20;44.50;;;;;;4974926;28;20577;-81
2021/05/04 01:50:26;;;;;;;2.00;0.90;;;15.20;44.50;;;;;;4959129;28;21146;-81
2021/05/04 01:52:52;;;;;;;2.70;1.20;;;15.20;44.50;;;;;;4992604;28;20511;-81
2021/05/04 01:55:17;;;;;;;1.37;0.80;;;15.20;44.50;;;;;;4975177;28;20221;-81
2021/05/04 01:57:43;;;;;;;1.37;0.80;;;15.20;44.60;;;;;;4992253;28;20258;-81
2021/05/04 02:00:09;;;;;;;2.63;0.83;;;15.20;44.60;;;;;;4993598;28;20159;-81
2021/05/04 02:02:36;;;;;;;1.20;0.70;;;15.20;44.60;;;;;;4960372;28;20635;-81
2021/05/04 02:05:03;;;;;;;1.88;0.73;;;15.20;44.70;;;;;;4982386;28;20190;-81
2021/05/04 02:07:29;;;;;;;1.75;0.80;;;15.20;44.50;;;;;;4980380;28;20195;-80
2021/05/04 02:09:55;;;;;;;1.70;0.83;;;15.30;44.60;;;;;;4993843;28;20222;-81
2021/05/04 02:12:21;;;;;;;1.30;0.87;;;15.30;44.60;;;;;;4959674;28;20167;-81
2021/05/04 02:14:46;;;;;;;3.47;0.83;;;15.30;44.60;;;;;;4992261;28;20175;-81
2021/05/04 02:17:12;;;;;;;1.50;0.80;;;15.40;44.60;;;;;;4991601;28;20629;-81
2021/05/04 02:19:38;;;;;;;4.57;0.80;;;15.40;44.50;;;;;;4992133;28;20178;-81
2021/05/04 02:22:04;;;;;;;2.17;0.70;;;15.40;44.30;;;;;;4958360;28;20179;-82
2021/05/04 02:24:30;;;;;;;3.70;0.80;;;15.50;44.20;;;;;;4974798;28;20959;-81
2021/05/04 02:26:56;;;;;;;2.13;1.10;;;15.50;44.10;;;;;;4973938;28;20195;-81
2021/05/04 02:29:22;;;;;;;3.47;1.20;;;15.50;44.10;;;;;;4992116;28;20198;-81
2021/05/04 02:31:47;;;;;;;4.90;0.90;;;15.50;43.90;;;;;;4992060;28;20211;-81
2021/05/04 02:34:13;;;;;;;17.93;1.90;;;15.50;43.90;;;;;;4995088;28;20197;-81
2021/05/04 02:36:39;;;;;;;16.20;1.60;;;15.50;43.90;;;;;;4995171;28;20206;-81
2021/05/04 02:39:08;;;;;;;3.50;0.90;;;15.50;44.10;;;;;;4995540;28;20724;-81
2021/05/04 02:41:35;;;;;;;5.65;0.90;;;15.50;44.30;;;;;;4978064;28;20182;-81
2021/05/04 02:44:02;;;;;;;1.70;0.73;;;15.40;45.20;;;;;;4978081;28;20253;-81
2021/05/04 02:46:31;;;;;;;2.63;0.73;;;15.20;45.50;;;;;;4994967;28;20187;-81
2021/05/04 02:48:57;;;;;;;2.90;0.90;;;15.10;45.50;;;;;;4981284;28;20175;-81
2021/05/04 02:51:23;;;;;;;1.60;0.80;;;14.90;46.30;;;;;;4978179;28;20179;-81
2021/05/04 02:53:49;;;;;;;2.88;0.90;;;14.70;46.70;;;;;;4995519;28;20214;-81
2021/05/04 02:56:15;;;;;;;1.60;0.90;;;14.50;47.70;;;;;;4977655;28;20214;-78
2021/05/04 02:58:41;;;;;;;1.73;0.80;;;14.30;47.40;;;;;;4995440;28;20171;-82
2021/05/04 03:01:07;;;;;;;2.00;0.70;;;14.10;47.30;;;;;;4995310;28;20626;-81
2021/05/04 03:03:35;;;;;;;1.58;0.80;;;13.90;47.70;;;;;;4995575;28;20175;-80
2021/05/04 03:06:02;;;;;;;2.10;0.80;;;13.70;48.00;;;;;;4996021;28;20233;-81
2021/05/04 03:08:28;;;;;;;3.15;2.38;;;13.60;49.50;;;;;;4995078;28;20167;-81
2021/05/04 03:10:54;;;;;;;1.63;0.90;;;13.30;49.00;;;;;;4995186;28;20179;-81
2021/05/04 03:13:28;;;;;;;3.15;1.05;;;13.20;49.50;;;;;;4995186;28;20178;-81
2021/05/04 03:15:54;;;;;;;1.83;0.80;;;13.00;50.00;;;;;;4977630;28;20230;-81
2021/05/04 03:18:20;;;;;;;1.55;0.80;;;12.80;50.00;;;;;;4977321;28;20163;-81
2021/05/04 03:20:48;;;;;;;1.40;0.80;;;12.70;51.40;;;;;;4977652;28;20171;-81
2021/05/04 03:23:15;;;;;;;1.95;1.00;;;12.50;51.70;;;;;;4994881;28;20159;-80
2021/05/04 03:25:42;;;;;;;1.63;0.80;;;12.30;51.30;;;;;;4995426;28;20199;-81
2021/05/04 03:28:09;;;;;;;1.60;0.85;;;12.20;52.40;;;;;;4977052;28;20261;-81
2021/05/04 03:30:35;;;;;;;3.65;0.80;;;12.00;52.90;;;;;;4994862;28;20831;-81
2021/05/04 03:33:01;;;;;;;1.30;0.80;;;11.90;52.60;;;;;;4977448;28;20171;-81
2021/05/04 03:35:26;;;;;;;1.47;0.80;;;11.80;53.00;;;;;;4994606;28;21071;-81
2021/05/04 03:37:52;;;;;;;1.93;0.70;;;11.70;52.80;;;;;;4976855;28;20590;-81
2021/05/04 03:40:18;;;;;;;2.17;0.80;;;11.60;53.10;;;;;;4994722;28;20509;-81
2021/05/04 03:42:44;;;;;;;1.88;0.73;;;11.60;53.80;;;;;;4994620;28;20550;-81
2021/05/04 03:45:13;;;;;;;2.80;0.70;;;11.60;53.60;;;;;;4977170;28;20167;-82
2021/05/04 03:47:41;;;;;;;2.47;0.80;;;11.60;53.90;;;;;;4996148;28;20190;-81
2021/05/04 03:50:09;;;;;;;3.50;0.85;;;11.50;54.80;;;;;;4978534;28;20238;-81
2021/05/04 03:52:35;;;;;;;1.45;0.73;;;11.50;54.80;;;;;;4995160;28;20179;-81
2021/05/04 03:55:02;;;;;;;1.60;0.70;;;11.50;54.60;;;;;;4977400;28;20171;-81
2021/05/04 03:57:28;;;;;;;1.67;0.80;;;11.50;54.90;;;;;;4973547;28;20645;-81
2021/05/04 03:59:53;;;;;;;1.70;0.80;;;11.50;55.20;;;;;;4977102;28;20168;-82
2021/05/04 04:02:19;;;;;;;1.77;0.80;;;11.50;55.70;;;;;;4996155;28;20229;-81
2021/05/04 04:04:45;;;;;;;1.73;0.60;;;11.50;55.00;;;;;;4994551;28;20250;-81
2021/05/04 04:07:11;;;;;;;1.30;0.80;;;11.50;55.90;;;;;;4993675;28;20610;-81
2021/05/04 04:09:37;;;;;;;2.07;0.60;;;11.50;56.00;;;;;;4976685;28;20218;-81
2021/05/04 04:12:03;;;;;;;2.80;0.77;;;11.50;55.60;;;;;;4993906;28;20558;-81
2021/05/04 04:14:28;;;;;;;2.93;0.70;;;11.50;55.80;;;;;;4994130;28;20167;-80
2021/05/04 04:16:54;;;;;;;4.53;0.70;;;11.50;55.90;;;;;;4993448;28;20744;-81
2021/05/04 04:19:20;;;;;;;3.93;0.70;;;11.50;56.30;;;;;;4993949;28;20172;-81
2021/05/04 04:21:48;;;;;;;1.20;0.60;;;11.60;56.50;;;;;;4976352;28;20534;-82
2021/05/04 04:24:14;;;;;;;1.92;0.70;;;11.50;57.00;;;;;;4993757;28;20206;-81
2021/05/04 04:26:40;;;;;;;2.17;0.70;;;11.50;57.20;;;;;;4975826;28;20237;-81
2021/05/04 04:29:05;;;;;;;1.97;0.70;;;11.50;57.10;;;;;;4960355;28;20593;-81
2021/05/04 04:31:31;;;;;;;1.50;0.80;;;11.50;57.40;;;;;;4976471;28;20385;-81
2021/05/04 04:33:57;;;;;;;1.30;0.73;;;11.50;57.90;;;;;;4976500;28;20659;-81
2021/05/04 04:36:23;;;;;;;1.37;0.70;;;11.50;58.00;;;;;;4992744;28;20211;-81
2021/05/04 04:38:48;;;;;;;3.30;0.70;;;11.50;58.30;;;;;;4958010;28;20190;-80
2021/05/04 04:41:14;;;;;;;1.87;0.80;;;11.50;58.10;;;;;;4962814;29;20190;-80
2021/05/04 04:43:43;;;;;;;1.10;0.70;;;11.60;58.20;;;;;;4975698;28;20176;-80
2021/05/04 04:46:15;;;;;;;1.20;0.60;;;11.60;58.20;;;;;;4956920;28;20212;-81
2021/05/04 04:48:42;;;;;;;2.13;0.70;;;11.60;58.70;;;;;;4966502;28;20187;-81
2021/05/04 04:51:07;;;;;;;2.23;0.60;;;11.60;59.60;;;;;;4980123;28;20192;-81
2021/05/04 04:53:33;;;;;;;1.43;0.87;;;11.60;60.00;;;;;;4984367;28;20183;-81
2021/05/04 04:55:59;;;;;;;1.03;0.60;;;11.60;59.70;;;;;;4964409;28;20211;-81
2021/05/04 04:58:24;;;;;;;1.63;0.80;;;11.60;59.70;;;;;;4968812;28;20168;-81
2021/05/04 05:00:50;;;;;;;2.37;0.73;;;11.70;60.80;;;;;;4974369;28;20192;-81
2021/05/04 05:03:16;;;;;;;3.07;0.67;;;11.70;60.30;;;;;;4975572;28;20693;-81
2021/05/04 05:05:42;;;;;;;2.77;0.60;;;11.70;60.30;;;;;;4951754;28;20662;-80
2021/05/04 05:08:08;;;;;;;1.30;0.70;;;11.70;61.00;;;;;;4954799;29;20580;-80
2021/05/04 05:10:34;;;;;;;1.27;0.70;;;11.70;61.80;;;;;;4957164;29;20164;-80
2021/05/04 05:12:59;;;;;;;1.20;0.60;;;11.80;61.50;;;;;;4938747;29;20203;-80
2021/05/04 05:15:26;;;;;;;1.80;0.80;;;11.80;62.20;;;;;;4971508;28;20560;-80
2021/05/04 05:17:52;;;;;;;2.25;0.80;;;11.80;62.90;;;;;;4972282;29;20176;-80
2021/05/04 05:20:18;;;;;;;1.30;0.70;;;11.90;63.10;;;;;;4940211;29;20232;-80
2021/05/04 05:22:44;;;;;;;1.60;0.70;;;11.90;63.30;;;;;;4968520;29;20191;-81
2021/05/04 05:25:11;;;;;;;1.13;0.70;;;11.90;64.20;;;;;;4938053;29;20608;-79
2021/05/04 05:27:37;;;;;;;1.25;0.70;;;11.90;64.50;;;;;;4921409;29;20207;-79
2021/05/04 05:30:10;;;;;;;1.25;0.70;;;12.00;64.40;;;;;;4937601;29;20187;-79
2021/05/04 05:32:36;;;;;;;2.28;0.60;;;12.00;65.30;;;;;;4955406;29;20200;-79
2021/05/04 05:35:02;;;;;;;1.50;0.50;;;12.00;64.50;;;;;;4906889;29;20181;-80
2021/05/04 05:37:28;;;;;;;1.63;0.70;;;12.10;65.10;;;;;;4954745;28;20698;-79
2021/05/04 05:39:54;;;;;;;2.70;0.70;;;12.10;65.40;;;;;;4955369;29;20632;-78
2021/05/04 05:42:20;;;;;;;1.37;0.70;;;12.10;66.20;;;;;;4947530;28;20603;-77
2021/05/04 05:44:46;;;;;;;1.10;0.60;;;12.10;66.20;;;;;;4973864;28;20575;-78
2021/05/04 05:47:12;;;;;;;3.00;0.60;;;12.20;66.70;;;;;;4974031;28;20199;-78
2021/05/04 05:49:39;;;;;;;2.97;0.70;;;12.20;66.70;;;;;;4973236;28;20172;-78
2021/05/04 05:52:05;;;;;;;2.08;0.68;;;12.30;67.30;;;;;;4972929;28;20171;-80
2021/05/04 05:54:31;;;;;;;1.40;0.93;;;12.30;67.70;;;;;;4941567;28;20207;-77
2021/05/04 05:56:58;;;;;;;2.50;0.70;;;12.30;68.00;;;;;;4973260;28;20215;-80
2021/05/04 05:59:24;;;;;;;2.03;0.80;;;12.30;68.60;;;;;;4975011;28;20559;-79
2021/05/04 06:01:50;;;;;;;1.80;0.65;;;12.40;68.90;;;;;;4954246;28;20171;-79
2021/05/04 06:04:16;;;;;;;1.63;0.60;;;12.40;69.60;;;;;;4957011;28;20664;-79
2021/05/04 06:06:41;;;;;;;1.13;0.67;;;12.40;69.10;;;;;;4923405;28;20222;-78
2021/05/04 06:09:08;;;;;;;1.40;0.60;;;12.40;69.50;;;;;;4960161;28;20242;-80
2021/05/04 06:11:34;;;;;;;1.90;0.70;;;12.40;70.80;;;;;;4946499;28;20238;-81
2021/05/04 06:14:00;;;;;;;2.60;0.80;;;12.50;70.00;;;;;;4962227;28;20164;-80
2021/05/04 06:16:26;;;;;;;3.15;0.70;;;12.50;70.70;;;;;;4968498;28;20225;-80
2021/05/04 06:18:52;;;;;;;1.30;0.70;;;12.60;71.10;;;;;;4956826;28;20662;-80
2021/05/04 06:21:18;;;;;;;1.10;0.60;;;12.60;70.80;;;;;;4979806;28;20175;-78
2021/05/04 06:23:44;;;;;;;1.10;0.70;;;12.60;72.10;;;;;;4979203;28;20167;-79
2021/05/04 06:26:09;;;;;;;1.30;0.70;;;12.70;71.80;;;;;;4979460;28;20805;-79
2021/05/04 06:28:35;;;;;;;1.43;0.60;;;12.70;72.40;;;;;;4978058;28;20278;-80
2021/05/04 06:31:03;;;;;;;1.47;0.60;;;12.70;72.10;;;;;;4982056;28;20182;-78
2021/05/04 06:33:29;;;;;;;1.30;0.60;;;12.70;72.60;;;;;;4964245;28;20179;-80
2021/05/04 06:35:54;;;;;;;1.67;0.63;;;12.70;72.80;;;;;;4997130;28;20709;-79
2021/05/04 06:38:20;;;;;;;1.20;0.70;;;12.70;72.70;;;;;;4979498;28;20191;-81
2021/05/04 06:40:48;;;;;;;1.60;0.60;;;12.70;73.30;;;;;;4999571;28;20259;-82
2021/05/04 06:43:14;;;;;;;1.88;0.70;;;12.70;73.50;;;;;;5000766;28;20930;-81
2021/05/04 06:45:41;;;;;;;1.30;0.60;;;12.80;73.90;;;;;;4983588;28;20721;-79
2021/05/04 06:48:07;;;;;;;1.25;0.70;;;12.80;76.30;;;;;;4970140;28;20189;-77
2021/05/04 06:50:33;;;;;;;3.35;0.80;;;12.80;75.70;;;;;;4980934;28;20179;-82
2021/05/04 06:52:59;;;;;;;1.00;0.60;;;12.80;75.40;;;;;;4984346;28;20230;-80
2021/05/04 06:55:25;;;;;;;1.73;0.80;;;12.90;75.20;;;;;;4982279;28;20179;-78
2021/05/04 06:57:51;;;;;;;2.43;0.70;;;12.90;75.70;;;;;;4978487;28;20670;-79
2021/05/04 07:00:17;;;;;;;1.33;0.60;;;12.90;76.30;;;;;;4997225;28;20171;-77
2021/05/04 07:02:43;;;;;;;1.40;0.70;;;13.00;76.20;;;;;;4997535;28;20170;-77
2021/05/04 07:05:10;;;;;;;1.47;0.97;;;13.00;77.10;;;;;;5000437;28;20226;-79
2021/05/04 07:07:36;;;;;;;1.10;0.60;;;13.10;78.30;;;;;;4988952;28;20616;-80
2021/05/04 07:10:05;;;;;;;1.40;0.70;;;13.20;78.30;;;;;;4991271;28;20190;-81
2021/05/04 07:12:31;;;;;;;1.20;0.60;;;13.40;78.90;;;;;;4999040;28;20564;-78
2021/05/04 07:14:57;;;;;;;2.00;0.80;;;13.50;78.30;;;;;;5003196;28;20182;-79
2021/05/04 07:17:25;;;;;;;1.40;0.50;;;13.60;78.20;;;;;;4994938;28;20967;-79
2021/05/04 07:19:53;;;;;;;1.48;0.70;;;13.60;78.30;;;;;;4997058;28;20764;-79
2021/05/04 07:22:21;;;;;;;1.40;0.70;;;13.60;77.80;;;;;;4994807;28;20298;-78
2021/05/04 07:24:48;;;;;;;1.77;0.65;;;13.70;78.00;;;;;;4994893;28;20529;-78
2021/05/04 07:27:14;;;;;;;1.20;0.65;;;13.60;78.10;;;;;;4976805;28;20190;-78
2021/05/04 07:29:40;;;;;;;1.60;0.60;;;13.60;78.10;;;;;;4977907;28;20167;-79
2021/05/04 07:32:07;;;;;;;1.25;0.50;;;13.60;78.00;;;;;;4978504;28;20175;-78
2021/05/04 07:34:33;;;;;;;1.73;0.60;;;13.60;78.20;;;;;;4996766;28;20255;-78
2021/05/04 07:36:58;;;;;;;1.67;0.60;;;13.60;78.40;;;;;;4998477;28;20214;-78
2021/05/04 07:39:24;;;;;;;1.30;0.60;;;13.50;78.50;;;;;;4961525;28;20558;-78
2021/05/04 07:41:50;;;;;;;1.73;0.60;;;13.50;78.60;;;;;;4979654;28;20926;-79
2021/05/04 07:44:16;;;;;;;1.40;0.70;;;13.60;79.20;;;;;;4984040;28;20600;-78
2021/05/04 07:46:42;;;;;;;1.60;0.50;;;13.50;79.40;;;;;;4964562;28;20588;-78
2021/05/04 07:49:12;;;;;;;1.63;0.55;;;13.50;79.50;;;;;;4995857;28;20673;-78
2021/05/04 07:51:39;;;;;;;1.17;0.60;;;13.50;79.90;;;;;;4981674;28;20642;-79
2021/05/04 07:54:05;;;;;;;1.50;0.60;;;13.50;80.30;;;;;;4999405;28;20254;-79
2021/05/04 07:56:31;;;;;;;1.20;0.60;;;13.50;80.50;;;;;;4978974;28;20191;-79
2021/05/04 07:58:56;;;;;;;1.83;0.70;;;13.60;81.00;;;;;;4979036;28;20730;-80
2021/05/04 08:01:22;;;;;;;3.20;0.70;;;13.60;81.60;;;;;;4976936;28;20175;-79
2021/05/04 08:03:48;;;;;;;1.50;0.70;;;13.60;81.60;;;;;;4994172;28;20173;-78
2021/05/04 08:06:14;;;;;;;1.27;0.80;;;13.70;81.90;;;;;;4976465;28;20545;-78
2021/05/04 08:08:39;;;;;;;1.43;0.60;;;13.70;82.30;;;;;;4993684;28;20673;-78
2021/05/04 08:11:05;;;;;;;1.20;0.70;;;13.80;82.50;;;;;;4976261;28;20198;-76
2021/05/04 08:13:32;;;;;;;3.00;0.70;;;13.80;82.40;;;;;;4998836;28;20567;-80
2021/05/04 08:15:59;;;;;;;1.20;0.60;;;13.80;82.50;;;;;;4980017;28;20664;-80
2021/05/04 08:18:26;;;;;;;1.20;0.60;;;13.90;82.80;;;;;;4978603;28;20207;-80
2021/05/04 08:20:54;;;;;;;1.38;0.60;;;13.90;83.70;;;;;;4978957;28;20182;-80
2021/05/04 08:23:23;;;;;;;3.25;0.60;;;14.00;83.80;;;;;;4996001;28;20545;-76
2021/05/04 08:25:49;;;;;;;1.40;0.80;;;14.00;84.40;;;;;;4976058;28;20200;-78
2021/05/04 08:28:15;;;;;;;1.87;0.77;;;14.00;85.10;;;;;;4994311;28;20178;-77
2021/05/04 08:30:41;;;;;;;1.40;0.70;;;13.90;85.30;;;;;;4992823;28;20171;-76
2021/05/04 08:33:07;;;;;;;2.22;0.60;;;13.90;85.40;;;;;;4959991;28;20218;-77
2021/05/04 08:35:33;;;;;;;1.10;0.60;;;13.90;86.80;;;;;;4975885;28;20198;-77
2021/05/04 08:37:59;;;;;;;2.05;0.73;;;13.90;86.50;;;;;;4993051;28;20571;-77
2021/05/04 08:40:26;;;;;;;1.80;1.30;;;13.80;86.50;;;;;;4993487;28;20186;-77
2021/05/04 08:42:52;;;;;;;2.78;0.70;;;13.80;87.00;;;;;;4960193;28;20582;-78
2021/05/04 08:45:19;;;;;;;1.42;0.80;;;13.80;88.40;;;;;;4995200;28;20258;-78
2021/05/04 08:47:47;;;;;;;1.20;0.60;;;13.70;88.20;;;;;;4993113;28;20275;-80
2021/05/04 08:50:17;;;;;;;2.15;0.70;;;13.70;90.10;;;;;;4979397;28;20159;-78
2021/05/04 08:52:43;;;;;;;1.50;0.80;;;13.70;89.80;;;;;;4963232;28;20249;-78
2021/05/04 08:55:11;;;;;;;2.63;0.80;;;13.70;89.50;;;;;;4979110;28;20199;-79
2021/05/04 08:57:38;;;;;;;1.88;0.80;;;13.70;89.90;;;;;;4939064;28;20947;-79
2021/05/04 09:00:12;;;;;;;1.83;0.70;;;13.70;90.00;;;;;;4947045;28;20179;-78
2021/05/04 09:03:01;;;;;;;2.65;0.75;;;13.70;90.90;;;;;;4962470;28;20183;-77
2021/05/04 09:06:02;;;;;;;1.75;0.80;;;13.80;91.20;;;;;;4982943;28;20175;-77
2021/05/04 09:08:42;;;;;;;3.28;1.00;;;13.90;91.50;;;;;;4952983;28;20179;-77
2021/05/04 09:14:10;;;;;;;2.10;1.08;;;14.10;91.80;;;;;;4974228;28;20697;-78
2021/05/04 09:21:42;;;;;;;2.35;1.00;;;14.40;94.50;;;;;;4953553;29;20709;-76
2021/05/04 09:24:26;;;;;;;2.42;0.80;;;14.60;94.30;;;;;;4953871;29;20172;-76
2021/05/04 09:27:07;;;;;;;2.10;0.70;;;14.70;93.50;;;;;;4952274;28;20192;-76
2021/05/04 09:29:39;;;;;;;2.83;0.80;;;14.80;93.00;;;;;;4937026;29;20180;-77
2021/05/04 09:32:20;;;;;;;2.30;0.82;;;14.80;92.70;;;;;;4969780;28;20321;-79
2021/05/04 09:34:50;;;;;;;3.45;0.85;;;14.80;92.50;;;;;;4999800;28;20201;-79
2021/05/04 09:37:31;;;;;;;1.63;0.85;;;14.80;92.10;;;;;;4978272;28;20226;-79
2021/05/04 09:40:21;;;;;;;1.90;0.90;;;14.80;92.20;;;;;;4994584;28;20202;-79
2021/05/04 09:42:58;;;;;;;1.20;0.70;;;14.80;92.40;;;;;;4976300;28;20172;-80
2021/05/04 09:45:24;;;;;;;1.95;0.60;;;14.90;92.40;;;;;;4957992;28;20225;-80
2021/05/04 09:48:18;;;;;;;2.85;1.00;;;14.90;92.40;;;;;;4924560;28;20559;-79
2021/05/04 09:50:44;;;;;;;2.05;0.60;;;14.90;92.60;;;;;;4957853;28;20198;-79
2021/05/04 09:53:10;;;;;;;1.83;0.70;;;14.90;92.80;;;;;;4940805;28;20202;-81
2021/05/04 09:58:46;;;;;;;1.90;0.60;;;15.00;93.00;;;;;;5114861;23;20583;-77
2021/05/04 10:01:34;;;;;;;2.25;0.80;;;15.10;93.30;;;;;;4931955;28;20183;-75
2021/05/04 10:04:03;;;;;;;1.20;0.70;;;15.30;93.50;;;;;;4955268;28;20176;-75
2021/05/04 10:06:29;;;;;;;1.30;0.63;;;15.50;93.80;;;;;;4938827;28;20557;-76
2021/05/04 10:08:56;;;;;;;1.50;0.60;;;15.70;93.70;;;;;;4972660;28;20259;-76
2021/05/04 10:11:22;;;;;;;1.93;0.60;;;15.90;93.60;;;;;;4973101;28;20575;-74
2021/05/04 10:13:56;;;;;;;1.48;0.50;;;16.00;93.30;;;;;;4972968;28;20568;-74
2021/05/04 10:16:30;;;;;;;1.30;0.50;;;16.10;93.00;;;;;;4957094;28;20212;-73
2021/05/04 10:19:03;;;;;;;2.30;0.60;;;16.20;92.50;;;;;;4957625;28;20175;-74
2021/05/04 10:21:29;;;;;;;2.83;0.60;;;16.30;91.90;;;;;;4956134;28;20607;-74
2021/05/04 10:23:56;;;;;;;1.83;0.60;;;16.30;91.60;;;;;;4972958;28;20567;-74
2021/05/04 10:26:29;;;;;;;3.03;0.80;;;16.40;91.70;;;;;;4939382;28;21021;-75
2021/05/04 10:29:01;;;;;;;1.73;0.67;;;16.70;91.60;;;;;;4972980;28;20599;-74
2021/05/04 10:31:44;;;;;;;4.43;1.07;;;16.90;91.00;;;;;;4972333;28;20610;-74
2021/05/04 10:34:34;;;;;;;3.43;0.60;;;17.30;89.40;;;;;;4972114;28;20666;-74
2021/05/04 10:37:12;;;;;;;2.20;0.70;;;17.50;90.20;;;;;;4949572;28;21057;-73
2021/05/04 10:39:43;;;;;;;1.97;0.80;;;18.10;91.00;;;;;;4972281;28;20668;-73
2021/05/04 10:42:12;;;;;;;1.77;0.70;;;18.70;91.30;;;;;;4972015;28;20568;-73
2021/05/04 10:44:53;;;;;;;3.53;1.17;;;19.20;91.10;;;;;;4954458;28;20575;-73
2021/05/04 10:47:39;;;;;;;2.30;0.50;;;19.60;86.40;;;;;;4954540;28;20721;-73
2021/05/04 10:50:09;;;;;;;3.97;1.00;;;19.80;84.10;;;;;;4958563;28;20685;-73
2021/05/04 10:53:01;;;;;;;4.03;0.83;;;20.00;82.80;;;;;;4954665;28;20591;-74
2021/05/04 10:55:52;;;;;;;8.60;0.77;;;20.00;76.40;;;;;;4958093;28;21168;-73
2021/05/04 10:58:22;;;;;;;6.67;1.60;;;19.90;77.50;;;;;;4965005;28;20609;-74
2021/05/04 11:01:03;;;;;;;2.43;1.00;;;20.00;78.50;;;;;;4956792;28;20673;-75
2021/05/04 11:03:29;;;;;;;3.90;1.00;;;20.00;77.60;;;;;;4957478;28;20559;-74
2021/05/04 11:06:05;;;;;;;1.70;0.67;;;20.30;80.20;;;;;;4964067;28;20923;-74
2021/05/04 11:08:43;;;;;;;2.60;0.93;;;20.50;78.70;;;;;;4993415;28;20179;-74
2021/05/04 11:11:18;;;;;;;4.70;1.73;;;20.50;75.50;;;;;;4993481;28;20724;-74
2021/05/04 11:13:51;;;;;;;6.90;0.90;;;20.50;75.40;;;;;;4993446;28;20684;-74
2021/05/04 11:16:36;;;;;;;5.50;0.90;;;20.80;77.50;;;;;;4990611;28;20687;-74
2021/05/04 11:19:18;;;;;;;4.10;0.90;;;21.20;77.30;;;;;;4967056;28;20590;-75
2021/05/04 11:21:45;;;;;;;5.53;1.00;;;21.70;75.90;;;;;;4983730;28;20632;-75
2021/05/04 11:24:17;;;;;;;2.33;0.80;;;22.30;76.50;;;;;;4948621;28;20572;-75
2021/05/04 11:26:58;;;;;;;4.73;1.13;;;22.60;71.50;;;;;;4972412;28;20591;-75
2021/05/04 11:29:37;;;;;;;7.70;1.40;;;22.80;66.70;;;;;;4956734;28;20674;-76
2021/05/04 11:32:09;;;;;;;3.23;1.00;;;22.80;64.80;;;;;;4973934;28;20570;-76
2021/05/04 11:34:50;;;;;;;8.73;1.80;;;22.60;60.20;;;;;;4973608;28;21155;-75
2021/05/04 11:37:24;;;;;;;9.13;1.30;;;22.30;58.00;;;;;;4973391;28;20636;-75
2021/05/04 11:40:02;;;;;;;4.00;1.00;;;22.00;59.10;;;;;;4972854;28;20563;-76
2021/05/04 11:42:42;;;;;;;25.13;3.70;;;21.70;57.90;;;;;;4974772;28;20617;-77
2021/05/04 11:45:21;;;;;;;44.73;5.90;;;21.40;58.50;;;;;;4940598;28;20938;-78
2021/05/04 11:47:49;;;;;;;37.67;4.80;;;21.00;57.20;;;;;;4972371;28;20590;-77
2021/05/04 11:50:28;;;;;;;28.37;3.17;;;20.70;57.80;;;;;;4973972;28;20566;-77
2021/05/04 11:52:56;;;;;;;31.20;2.93;;;20.40;57.90;;;;;;4956323;28;20567;-75
2021/05/04 11:55:30;;;;;;;24.37;3.13;;;20.20;58.00;;;;;;4956050;28;20587;-76
2021/05/04 11:58:04;;;;;;;25.17;3.50;;;19.90;58.00;;;;;;4969845;28;20685;-76
2021/05/04 12:00:33;;;;;;;14.43;2.47;;;19.80;58.90;;;;;;4957968;28;636242;-77
2021/05/04 12:03:16;;;;;;;7.73;1.90;;;19.80;58.80;;;;;;4958729;28;20577;-76
2021/05/04 12:05:45;;;;;;;10.43;1.80;;;19.80;58.20;;;;;;4964197;28;20564;-76
2021/05/04 12:08:12;;;;;;;7.57;1.30;;;19.80;57.50;;;;;;4960403;28;20645;-76
2021/05/04 12:10:46;;;;;;;12.67;2.43;;;19.70;56.00;;;;;;4986645;28;20579;-76
2021/05/04 12:13:19;;;;;;;20.63;2.67;;;19.80;57.60;;;;;;4965162;28;20594;-77
2021/05/04 12:15:45;;;;;;;17.30;4.53;;;19.90;57.10;;;;;;4956715;28;20675;-77
2021/05/04 12:18:14;;;;;;;10.40;1.50;;;20.10;57.40;;;;;;4970365;28;20721;-76
2021/05/04 12:20:47;;;;;;;15.33;2.53;;;20.20;57.00;;;;;;4968527;28;20582;-76
2021/05/04 12:23:35;;;;;;;19.10;2.70;;;20.20;56.30;;;;;;4993884;28;20621;-76
2021/05/04 12:26:10;;;;;;;23.63;2.93;;;20.30;55.60;;;;;;4975689;28;20654;-76
2021/05/04 12:28:48;;;;;;;14.53;1.73;;;20.10;54.70;;;;;;4959653;28;20589;-76
2021/05/04 12:31:18;;;;;;;17.90;2.50;;;20.00;54.70;;;;;;4968969;28;20669;-76
2021/05/04 12:33:47;;;;;;;16.40;2.67;;;19.80;54.90;;;;;;4970817;28;20721;-76
2021/05/04 12:36:20;;;;;;;12.63;1.50;;;19.60;53.50;;;;;;4963841;28;20207;-74
2021/05/04 12:38:55;;;;;;;9.63;1.40;;;19.60;54.60;;;;;;4975423;28;20585;-76
2021/05/04 12:41:22;;;;;;;9.93;1.13;;;19.60;54.20;;;;;;4975799;28;20577;-76
2021/05/04 12:44:31;;;;;;;4.97;0.97;;;19.60;54.30;;;;;;4993042;28;20599;-76
2021/05/04 12:47:09;;;;;;;5.83;1.10;;;19.60;53.80;;;;;;4979598;28;20611;-77
2021/05/04 12:49:40;;;;;;;7.32;1.65;;;19.70;53.40;;;;;;4955907;28;20727;-77
2021/05/04 12:52:11;;;;;;;8.50;1.80;;;19.50;50.90;;;;;;4970806;28;20183;-76
2021/05/04 12:54:38;;;;;;;9.00;1.90;;;19.50;52.10;;;;;;4957695;28;20571;-76
2021/05/04 12:57:22;;;;;;;10.63;2.23;;;19.50;52.70;;;;;;4975136;28;20630;-77
2021/05/04 12:59:48;;;;;;;2.90;0.90;;;19.50;51.90;;;;;;4973231;28;20589;-76
2021/05/04 13:02:20;;;;;;;3.40;1.03;;;19.50;52.80;;;;;;4973518;28;20563;-76
2021/05/04 13:05:01;;;;;;;11.30;1.67;;;19.50;52.90;;;;;;4956137;28;20575;-76